createdAt,value
2023-07-07T00:01:10.430Z,2.40
2023-07-07T00:03:40.559Z,2.40
2023-07-07T00:06:09.297Z,2.30
2023-07-07T00:08:38.086Z,2.80
2023-07-07T00:11:06.900Z,2.70
2023-07-07T00:13:35.694Z,2.40
2023-07-07T00:16:05.276Z,2.20
2023-07-07T00:18:34.103Z,2.47
2023-07-07T00:21:04.535Z,2.50
2023-07-07T00:23:33.801Z,2.20
2023-07-07T00:26:05.148Z,2.73
2023-07-07T00:28:35.201Z,2.33
2023-07-07T00:31:04.892Z,2.50
2023-07-07T00:33:34.004Z,2.47
2023-07-07T00:36:04.664Z,2.70
2023-07-07T00:38:33.533Z,2.77
2023-07-07T00:41:03.156Z,2.63
2023-07-07T00:43:32.355Z,2.53
2023-07-07T00:46:02.004Z,2.37
2023-07-07T00:48:37.126Z,2.27
2023-07-07T00:51:23.614Z,2.67
2023-07-07T00:53:57.623Z,2.50
2023-07-07T00:56:35.740Z,2.80
2023-07-07T00:59:12.169Z,2.50
2023-07-07T01:01:42.808Z,2.50
2023-07-07T01:04:19.028Z,2.47
2023-07-07T01:06:55.871Z,2.57
2023-07-07T01:09:24.656Z,2.80
2023-07-07T01:11:53.347Z,2.60
2023-07-07T01:14:27.816Z,2.43
2023-07-07T01:17:15.735Z,2.77
2023-07-07T01:20:32.008Z,2.40
2023-07-07T01:23:46.446Z,2.40
2023-07-07T01:26:54.774Z,2.50
2023-07-07T01:29:50.374Z,2.77
2023-07-07T01:32:25.465Z,2.63
2023-07-07T01:35:00.391Z,2.73
2023-07-07T01:37:29.415Z,2.83
2023-07-07T01:39:58.546Z,2.63
2023-07-07T01:42:41.676Z,2.83
2023-07-07T01:45:19.018Z,2.40
2023-07-07T01:48:02.857Z,2.43
2023-07-07T01:50:35.687Z,2.37
2023-07-07T01:53:14.226Z,2.40
2023-07-07T01:55:51.941Z,2.63
2023-07-07T01:58:23.024Z,2.77
2023-07-07T02:00:57.188Z,2.50
2023-07-07T02:03:30.606Z,2.57
2023-07-07T02:05:59.479Z,2.80
2023-07-07T02:08:28.449Z,2.70
2023-07-07T02:10:57.471Z,2.87
2023-07-07T02:13:26.585Z,2.80
2023-07-07T02:15:55.312Z,2.67
2023-07-07T02:18:28.048Z,2.67
2023-07-07T02:20:58.686Z,2.67
2023-07-07T02:23:27.641Z,2.50
2023-07-07T02:25:56.383Z,2.77
2023-07-07T02:28:25.068Z,2.70
2023-07-07T02:30:55.811Z,2.80
2023-07-07T02:33:32.427Z,2.70
2023-07-07T02:36:08.791Z,2.57
2023-07-07T02:38:38.130Z,2.73
2023-07-07T02:41:07.044Z,2.60
2023-07-07T02:43:35.725Z,2.60
2023-07-07T02:46:04.588Z,2.70
2023-07-07T02:48:33.834Z,2.60
2023-07-07T02:51:07.855Z,2.90
2023-07-07T02:53:39.185Z,2.50
2023-07-07T02:56:08.798Z,2.83
2023-07-07T02:58:37.729Z,2.50
2023-07-07T03:01:15.236Z,2.70
2023-07-07T03:03:51.142Z,2.60
2023-07-07T03:06:24.983Z,2.87
2023-07-07T03:08:55.895Z,2.60
2023-07-07T03:11:26.696Z,2.80
2023-07-07T03:13:57.350Z,2.80
2023-07-07T03:16:32.687Z,2.70
2023-07-07T03:19:11.414Z,2.70
2023-07-07T03:21:56.254Z,2.70
2023-07-07T03:24:48.319Z,2.77
2023-07-07T03:27:30.345Z,3.07
2023-07-07T03:29:59.978Z,2.93
2023-07-07T03:32:29.911Z,2.60
2023-07-07T03:35:04.218Z,2.70
2023-07-07T03:37:34.877Z,2.87
2023-07-07T03:40:04.632Z,2.73
2023-07-07T03:42:33.492Z,3.10
2023-07-07T03:45:02.489Z,2.97
2023-07-07T03:47:33.357Z,2.80
2023-07-07T03:50:02.685Z,2.90
2023-07-07T03:52:36.768Z,3.10
2023-07-07T03:55:07.019Z,4.00
2023-07-07T03:57:40.129Z,2.93
2023-07-07T04:00:12.904Z,2.80
2023-07-07T04:02:46.700Z,3.20
2023-07-07T04:05:16.730Z,3.20
2023-07-07T04:07:48.913Z,3.70
2023-07-07T04:10:19.183Z,3.07
2023-07-07T04:12:53.966Z,3.40
2023-07-07T04:15:26.012Z,3.43
2023-07-07T04:17:55.627Z,3.37
2023-07-07T04:20:25.664Z,3.00
2023-07-07T04:22:55.946Z,3.27
2023-07-07T04:25:25.676Z,3.17
2023-07-07T04:27:55.158Z,3.30
2023-07-07T04:30:24.638Z,3.23
2023-07-07T04:32:53.841Z,3.13
2023-07-07T04:35:23.139Z,3.00
2023-07-07T04:37:52.870Z,5.83
2023-07-07T04:40:23.580Z,6.53
2023-07-07T04:42:52.555Z,4.80
2023-07-07T04:45:21.308Z,3.23
2023-07-07T04:47:50.125Z,3.53
2023-07-07T04:50:19.192Z,3.00
2023-07-07T04:52:47.804Z,3.20
2023-07-07T04:55:16.842Z,3.20
2023-07-07T04:57:47.611Z,3.13
2023-07-07T05:00:17.397Z,3.10
2023-07-07T05:02:46.702Z,2.80
2023-07-07T05:05:15.834Z,2.80
2023-07-07T05:07:45.364Z,3.00
2023-07-07T05:10:14.228Z,2.67
2023-07-07T05:12:42.932Z,2.80
2023-07-07T05:15:13.314Z,2.60
2023-07-07T05:17:42.077Z,3.20
2023-07-07T05:20:11.934Z,3.43
2023-07-07T05:22:40.690Z,3.00
2023-07-07T05:25:10.013Z,2.67
2023-07-07T05:27:38.626Z,2.80
2023-07-07T05:30:09.407Z,2.50
2023-07-07T05:32:39.503Z,2.97
2023-07-07T05:35:09.282Z,2.77
2023-07-07T05:37:37.901Z,2.80
2023-07-07T05:40:08.702Z,2.90
2023-07-07T05:42:37.433Z,2.80
2023-07-07T05:45:07.641Z,2.93
2023-07-07T05:47:36.524Z,2.50
2023-07-07T05:50:08.784Z,2.60
2023-07-07T05:52:37.758Z,2.70
2023-07-07T05:55:08.104Z,2.67
2023-07-07T05:57:36.809Z,2.60
2023-07-07T06:00:06.983Z,2.70
2023-07-07T06:02:41.429Z,2.83
2023-07-07T06:05:11.763Z,2.60
2023-07-07T06:07:40.578Z,2.80
2023-07-07T06:10:12.770Z,2.93
2023-07-07T06:12:42.803Z,2.60
2023-07-07T06:15:12.270Z,2.70
2023-07-07T06:17:41.326Z,2.47
2023-07-07T06:20:13.236Z,2.70
2023-07-07T06:22:41.988Z,2.50
2023-07-07T06:25:11.746Z,2.80
2023-07-07T06:27:40.476Z,2.20
2023-07-07T06:30:11.764Z,2.43
2023-07-07T06:32:40.483Z,2.30
2023-07-07T06:35:11.324Z,2.47
2023-07-07T06:37:40.131Z,2.47
2023-07-07T06:40:10.505Z,2.40
2023-07-07T06:42:39.180Z,2.70
2023-07-07T06:45:12.650Z,2.40
2023-07-07T06:47:41.513Z,2.73
2023-07-07T06:50:23.156Z,2.40
2023-07-07T06:52:51.867Z,2.47
2023-07-07T06:55:20.587Z,2.70
2023-07-07T06:57:49.243Z,2.30
2023-07-07T07:00:19.139Z,2.50
2023-07-07T07:02:48.918Z,2.33
2023-07-07T07:05:19.406Z,2.43
2023-07-07T07:07:49.123Z,2.10
2023-07-07T07:10:18.384Z,2.10
2023-07-07T07:12:48.665Z,2.07
2023-07-07T07:15:17.869Z,2.30
2023-07-07T07:17:46.912Z,2.10
2023-07-07T07:20:19.061Z,2.40
2023-07-07T07:22:48.972Z,2.40
2023-07-07T07:25:18.010Z,2.50
2023-07-07T07:27:46.700Z,2.40
2023-07-07T07:30:16.851Z,2.27
2023-07-07T07:32:45.790Z,2.20
2023-07-07T07:35:15.114Z,2.10
2023-07-07T07:37:45.216Z,2.33
2023-07-07T07:40:14.616Z,2.30
2023-07-07T07:42:43.479Z,2.23
2023-07-07T07:45:20.456Z,2.67
2023-07-07T07:47:49.794Z,2.58
2023-07-07T07:50:20.143Z,2.65
2023-07-07T07:52:50.647Z,2.63
2023-07-07T07:55:19.506Z,2.65
2023-07-07T07:57:48.250Z,2.47
2023-07-07T08:00:18.033Z,2.80
2023-07-07T08:02:47.484Z,2.53
2023-07-07T08:05:16.922Z,2.60
2023-07-07T08:07:45.665Z,2.20
2023-07-07T08:10:15.781Z,2.47
2023-07-07T08:12:44.514Z,2.67
2023-07-07T08:15:14.972Z,2.47
2023-07-07T08:17:43.856Z,2.80
2023-07-07T08:20:19.159Z,2.65
2023-07-07T08:22:48.012Z,2.15
2023-07-07T08:25:18.162Z,2.30
2023-07-07T08:30:20.307Z,2.60
2023-07-07T08:32:49.482Z,2.80
2023-07-07T08:35:18.381Z,2.58
2023-07-07T08:37:47.088Z,2.50
2023-07-07T08:40:23.450Z,2.75
2023-07-07T08:42:53.980Z,2.72
2023-07-07T08:45:25.529Z,2.65
2023-07-07T08:48:16.949Z,2.60
2023-07-07T08:50:52.539Z,2.90
2023-07-07T08:54:01.092Z,2.42
2023-07-07T08:56:52.177Z,2.58
2023-07-07T08:59:35.285Z,2.35
2023-07-07T09:02:16.196Z,2.65
2023-07-07T09:04:57.032Z,2.70
2023-07-07T09:07:56.820Z,2.35
2023-07-07T09:10:52.630Z,2.63
2023-07-07T09:13:29.675Z,2.70
2023-07-07T09:16:11.885Z,2.65
2023-07-07T09:18:51.094Z,2.38
2023-07-07T09:21:33.932Z,2.72
2023-07-07T09:24:13.847Z,2.75
2023-07-07T09:26:47.138Z,2.53
2023-07-07T09:29:25.691Z,2.47
2023-07-07T09:31:54.770Z,2.58
2023-07-07T09:34:25.924Z,2.97
2023-07-07T09:37:10.267Z,2.80
2023-07-07T09:40:01.700Z,2.70
2023-07-07T09:42:48.532Z,3.00
2023-07-07T09:45:46.353Z,2.65
2023-07-07T09:48:28.009Z,2.83
2023-07-07T09:51:10.362Z,2.60
2023-07-07T09:53:47.333Z,2.40
2023-07-07T09:56:26.604Z,2.80
2023-07-07T09:59:07.354Z,2.83
2023-07-07T10:01:46.214Z,2.63
2023-07-07T10:04:20.652Z,2.67
2023-07-07T10:06:58.494Z,2.72
2023-07-07T10:09:29.854Z,2.72
2023-07-07T10:14:33.580Z,2.75
2023-07-07T10:17:22.438Z,2.70
2023-07-07T10:19:57.247Z,2.67
2023-07-07T10:22:26.013Z,2.55
2023-07-07T10:24:54.794Z,2.78
2023-07-07T10:27:28.892Z,2.65
2023-07-07T10:30:05.423Z,2.72
2023-07-07T10:32:35.597Z,2.72
2023-07-07T10:35:10.268Z,2.88
2023-07-07T10:37:39.613Z,3.03
2023-07-07T10:40:16.035Z,2.60
2023-07-07T10:42:45.306Z,2.50
2023-07-07T10:45:15.237Z,2.70
2023-07-07T10:47:45.547Z,2.47
2023-07-07T10:50:18.790Z,2.65
2023-07-07T10:55:57.933Z,2.80
2023-07-07T10:58:48.417Z,2.88
2023-07-07T11:01:32.087Z,3.00
2023-07-07T11:04:46.133Z,2.78
2023-07-07T11:07:29.454Z,2.20
2023-07-07T11:10:39.426Z,2.90
2023-07-07T11:13:20.755Z,2.80
2023-07-07T11:16:04.329Z,3.05
2023-07-07T11:19:00.445Z,2.50
2023-07-07T11:21:45.073Z,2.33
2023-07-07T11:24:47.876Z,2.60
2023-07-07T11:27:44.849Z,2.80
2023-07-07T11:30:27.982Z,2.80
2023-07-07T11:33:14.184Z,2.60
2023-07-07T11:36:08.954Z,2.15
2023-07-07T11:39:04.603Z,2.30
2023-07-07T11:41:54.781Z,2.33
2023-07-07T11:44:52.030Z,2.60
2023-07-07T11:47:47.464Z,2.58
2023-07-07T11:50:43.706Z,2.50
2023-07-07T11:54:16.061Z,2.90
2023-07-07T11:58:01.327Z,2.30
2023-07-07T12:00:49.652Z,2.70
2023-07-07T12:03:49.630Z,2.42
2023-07-07T12:06:33.561Z,2.65
2023-07-07T12:09:33.256Z,2.53
2023-07-07T12:12:12.309Z,2.50
2023-07-07T12:14:59.148Z,2.38
2023-07-07T12:17:38.235Z,2.92
2023-07-07T12:20:16.028Z,2.70
2023-07-07T12:22:48.212Z,2.35
2023-07-07T12:25:26.167Z,2.63
2023-07-07T12:27:57.045Z,3.00
2023-07-07T12:30:31.940Z,2.53
2023-07-07T12:33:01.282Z,2.75
2023-07-07T12:35:37.607Z,2.53
2023-07-07T12:38:28.047Z,2.88
2023-07-07T12:41:00.961Z,2.75
2023-07-07T12:43:37.043Z,2.80
2023-07-07T12:46:18.848Z,2.55
2023-07-07T12:48:56.659Z,2.72
2023-07-07T12:51:48.461Z,2.47
2023-07-07T12:54:32.690Z,2.53
2023-07-07T12:57:05.338Z,2.40
2023-07-07T12:59:40.212Z,2.40
2023-07-07T13:02:20.565Z,2.35
2023-07-07T13:05:01.703Z,2.25
2023-07-07T13:07:34.060Z,2.50
2023-07-07T13:10:06.257Z,2.40
2023-07-07T13:12:48.626Z,2.75
2023-07-07T13:15:23.361Z,2.50
2023-07-07T13:17:57.984Z,2.70
2023-07-07T13:20:29.034Z,2.30
2023-07-07T13:23:07.353Z,2.20
2023-07-07T13:25:38.461Z,2.10
2023-07-07T13:28:15.472Z,2.08
2023-07-07T13:30:47.231Z,2.30
2023-07-07T13:33:21.326Z,2.25
2023-07-07T13:35:54.448Z,2.13
2023-07-07T13:38:27.415Z,2.25
2023-07-07T13:40:57.729Z,2.58
2023-07-07T13:43:31.478Z,2.45
2023-07-07T13:46:10.887Z,2.55
2023-07-07T13:48:48.740Z,2.83
2023-07-07T13:51:21.905Z,2.25
2023-07-07T13:53:50.778Z,2.63
2023-07-07T13:56:19.784Z,2.58
2023-07-07T13:58:53.589Z,2.40
2023-07-07T14:01:30.001Z,2.30
2023-07-07T14:04:05.018Z,2.58
2023-07-07T14:06:35.260Z,2.42
2023-07-07T14:09:04.146Z,2.83
2023-07-07T14:11:38.033Z,2.50
2023-07-07T14:14:06.944Z,2.72
2023-07-07T14:16:42.301Z,2.67
2023-07-07T14:19:23.338Z,2.60
2023-07-07T14:21:52.777Z,2.50
2023-07-07T14:24:29.182Z,2.90
2023-07-07T14:26:59.371Z,3.22
2023-07-07T14:29:34.803Z,2.70
2023-07-07T14:32:09.474Z,2.90
2023-07-07T14:34:51.151Z,3.03
2023-07-07T14:37:24.754Z,2.70
2023-07-07T14:39:55.905Z,2.90
2023-07-07T14:42:28.113Z,2.88
2023-07-07T14:44:58.788Z,2.80
2023-07-07T14:47:33.095Z,2.60
2023-07-07T14:50:09.344Z,2.90
2023-07-07T14:52:44.695Z,2.67
2023-07-07T14:55:19.319Z,3.05
2023-07-07T14:57:52.009Z,2.67
2023-07-07T15:00:38.739Z,2.80
2023-07-07T15:03:41.936Z,2.80
2023-07-07T15:06:25.125Z,2.78
2023-07-07T15:08:56.359Z,2.60
2023-07-07T15:11:34.493Z,2.53
2023-07-07T15:14:05.688Z,2.72
2023-07-07T15:16:35.562Z,2.53
2023-07-07T15:19:17.205Z,2.55
2023-07-07T15:21:48.678Z,2.75
2023-07-07T15:24:18.490Z,2.80
2023-07-07T15:26:47.859Z,2.80
2023-07-07T15:29:21.024Z,2.70
2023-07-07T15:31:51.235Z,2.80
2023-07-07T15:34:21.813Z,2.47
2023-07-07T15:36:52.255Z,2.80
2023-07-07T15:39:21.136Z,2.40
2023-07-07T15:41:49.843Z,2.78
2023-07-07T15:44:18.816Z,2.85
2023-07-07T15:46:50.211Z,3.10
2023-07-07T15:49:20.842Z,2.42
2023-07-07T15:51:49.900Z,2.70
2023-07-07T15:54:20.537Z,2.88
2023-07-07T15:56:50.754Z,2.78
2023-07-07T15:59:24.396Z,2.60
2023-07-07T16:01:55.674Z,2.80
2023-07-07T16:04:25.174Z,2.88
2023-07-07T16:06:54.684Z,3.60
2023-07-07T16:09:25.047Z,2.60
2023-07-07T16:11:53.879Z,2.92
2023-07-07T16:14:22.723Z,2.72
2023-07-07T16:16:51.433Z,3.13
2023-07-07T16:19:22.155Z,2.80
2023-07-07T16:21:51.124Z,2.90
2023-07-07T16:24:19.834Z,2.92
2023-07-07T16:26:50.922Z,2.78
2023-07-07T16:29:20.856Z,2.78
2023-07-07T16:31:50.071Z,2.70
2023-07-07T16:34:20.359Z,2.88
2023-07-07T16:36:49.124Z,3.15
2023-07-07T16:39:21.845Z,2.47
2023-07-07T16:41:52.132Z,2.80
2023-07-07T16:44:20.898Z,2.83
2023-07-07T16:46:50.260Z,2.58
2023-07-07T16:49:19.186Z,2.70
2023-07-07T16:51:47.866Z,2.95
2023-07-07T16:54:16.634Z,2.55
2023-07-07T16:56:45.418Z,2.50
2023-07-07T16:59:18.605Z,2.55
2023-07-07T17:01:48.951Z,2.85
2023-07-07T17:04:18.328Z,2.67
2023-07-07T17:06:47.574Z,2.58
2023-07-07T17:09:20.496Z,2.88
2023-07-07T17:11:49.291Z,2.58
2023-07-07T17:14:19.389Z,2.45
2023-07-07T17:16:48.094Z,2.90
2023-07-07T17:19:22.432Z,2.47
2023-07-07T17:21:52.483Z,2.55
2023-07-07T17:24:21.495Z,2.75
2023-07-07T17:26:52.442Z,2.70
2023-07-07T17:29:22.738Z,2.78
2023-07-07T17:31:51.553Z,2.65
2023-07-07T17:34:20.429Z,2.35
2023-07-07T17:36:49.052Z,2.65
2023-07-07T17:39:20.253Z,3.10
2023-07-07T17:41:49.710Z,2.75
2023-07-07T17:44:18.509Z,3.22
2023-07-07T17:46:48.640Z,2.85
2023-07-07T17:49:20.686Z,2.97
2023-07-07T17:51:50.157Z,3.35
2023-07-07T17:54:18.908Z,3.05
2023-07-07T17:56:47.637Z,2.92
2023-07-07T17:59:22.622Z,3.20
2023-07-07T18:01:56.095Z,2.70
2023-07-07T18:04:24.976Z,3.40
2023-07-07T18:06:55.770Z,3.25
2023-07-07T18:09:24.550Z,3.58
2023-07-07T18:11:53.847Z,3.42
2023-07-07T18:14:25.297Z,2.97
2023-07-07T18:16:59.252Z,3.30
2023-07-07T18:20:32.822Z,3.03
2023-07-07T18:22:33.296Z,3.17
2023-07-07T18:25:01.967Z,3.55
2023-07-07T18:27:30.696Z,3.05
2023-07-07T18:29:59.332Z,3.10
2023-07-07T18:32:29.484Z,2.92
2023-07-07T18:35:39.410Z,2.80
2023-07-07T18:37:47.190Z,3.03
2023-07-07T18:40:21.437Z,3.05
2023-07-07T18:42:53.982Z,2.60
2023-07-07T18:45:22.913Z,2.75
2023-07-07T18:47:57.647Z,2.75
2023-07-07T18:50:30.564Z,2.65
2023-07-07T18:53:00.587Z,2.75
2023-07-07T18:55:30.829Z,2.90
2023-07-07T18:57:59.592Z,3.05
2023-07-07T19:00:38.787Z,2.92
2023-07-07T19:03:11.767Z,3.03
2023-07-07T19:05:41.314Z,2.70
2023-07-07T19:08:13.916Z,2.70
2023-07-07T19:10:46.490Z,2.67
2023-07-07T19:13:19.126Z,3.40
2023-07-07T19:15:52.722Z,3.55
2023-07-07T19:18:41.304Z,2.80
2023-07-07T19:21:25.015Z,3.10
2023-07-07T19:23:55.630Z,2.63
2023-07-07T19:26:28.663Z,2.95
2023-07-07T19:28:59.344Z,2.80
2023-07-07T19:31:28.410Z,3.40
2023-07-07T19:34:00.674Z,2.88
2023-07-07T19:36:33.125Z,3.10
2023-07-07T19:39:01.855Z,3.10
2023-07-07T19:41:34.837Z,3.30
2023-07-07T19:44:04.473Z,3.10
2023-07-07T19:46:37.096Z,3.30
2023-07-07T19:49:18.937Z,3.45
2023-07-07T19:51:49.113Z,3.30
2023-07-07T19:54:17.971Z,3.47
2023-07-07T19:56:48.832Z,3.88
2023-07-07T19:59:21.699Z,3.90
2023-07-07T20:01:51.263Z,3.92
2023-07-07T20:04:21.653Z,4.10
2023-07-07T20:06:50.589Z,3.88
2023-07-07T20:09:23.121Z,3.92
2023-07-07T20:11:55.007Z,4.00
2023-07-07T20:14:26.156Z,4.32
2023-07-07T20:16:56.963Z,4.25
2023-07-07T20:19:28.276Z,3.83
2023-07-07T20:21:57.502Z,3.85
2023-07-07T20:24:28.615Z,4.03
2023-07-07T20:27:04.221Z,3.38
2023-07-07T20:29:33.388Z,3.40
2023-07-07T20:32:03.355Z,3.55
2023-07-07T20:34:34.756Z,3.60
2023-07-07T20:37:03.903Z,3.50
2023-07-07T20:39:33.630Z,3.33
2023-07-07T20:42:03.008Z,3.45
2023-07-07T20:44:32.128Z,3.38
2023-07-07T20:47:01.407Z,3.45
2023-07-07T20:49:30.120Z,3.42
2023-07-07T20:52:00.363Z,3.88
2023-07-07T20:54:29.315Z,3.50
2023-07-07T20:57:01.785Z,3.97
2023-07-07T20:59:36.833Z,3.47
2023-07-07T21:02:12.778Z,3.40
2023-07-07T21:04:42.580Z,3.90
2023-07-07T21:07:14.666Z,3.63
2023-07-07T21:09:44.239Z,3.90
2023-07-07T21:12:13.969Z,3.55
2023-07-07T21:14:42.973Z,3.47
2023-07-07T21:17:16.643Z,3.80
2023-07-07T21:19:45.936Z,4.25
2023-07-07T21:22:15.955Z,3.50
2023-07-07T21:24:44.582Z,3.30
2023-07-07T21:27:13.889Z,3.65
2023-07-07T21:29:44.522Z,3.70
2023-07-07T21:32:14.599Z,3.80
2023-07-07T21:34:43.806Z,3.85
2023-07-07T21:37:14.222Z,3.70
2023-07-07T21:39:44.555Z,4.00
2023-07-07T21:42:14.327Z,3.60
2023-07-07T21:44:45.665Z,3.60
2023-07-07T21:47:18.079Z,3.60
2023-07-07T21:49:50.062Z,3.80
2023-07-07T21:52:21.192Z,3.50
2023-07-07T21:54:52.533Z,3.33
2023-07-07T21:57:43.536Z,3.40
2023-07-07T22:00:21.372Z,3.15
2023-07-07T22:02:53.683Z,3.17
2023-07-07T22:05:24.893Z,3.80
2023-07-07T22:07:54.939Z,3.90
2023-07-07T22:10:38.941Z,3.20
2023-07-07T22:13:09.399Z,3.47
2023-07-07T22:15:39.711Z,3.45
2023-07-07T22:18:17.118Z,3.63
2023-07-07T22:20:53.536Z,3.60
2023-07-07T22:23:22.329Z,3.15
2023-07-07T22:25:53.664Z,3.50
2023-07-07T22:28:26.544Z,3.78
2023-07-07T22:30:58.751Z,3.70
2023-07-07T22:33:30.506Z,3.45
2023-07-07T22:36:02.026Z,3.53
2023-07-07T22:38:31.338Z,3.10
2023-07-07T22:41:02.197Z,3.20
2023-07-07T22:43:31.773Z,3.80
2023-07-07T22:46:04.690Z,3.60
2023-07-07T22:48:34.241Z,3.65
2023-07-07T22:51:04.297Z,3.22
2023-07-07T22:53:33.294Z,3.47
2023-07-07T22:56:04.300Z,3.30
2023-07-07T22:58:33.931Z,3.60
2023-07-07T23:01:04.008Z,3.58
2023-07-07T23:03:33.893Z,3.70
2023-07-07T23:06:03.547Z,4.13
2023-07-07T23:08:33.169Z,3.43
2023-07-07T23:11:04.532Z,3.70
2023-07-07T23:13:33.903Z,3.70
2023-07-07T23:16:03.293Z,3.80
2023-07-07T23:18:33.389Z,3.90
2023-07-07T23:21:02.412Z,4.10
2023-07-07T23:23:31.128Z,3.83
2023-07-07T23:26:00.566Z,3.53
2023-07-07T23:28:30.632Z,3.90
2023-07-07T23:31:07.146Z,4.07
2023-07-07T23:33:38.470Z,4.37
2023-07-07T23:36:20.230Z,4.63
2023-07-07T23:38:49.172Z,4.50
2023-07-07T23:41:18.773Z,4.40
2023-07-07T23:43:48.874Z,4.20
2023-07-07T23:46:21.184Z,4.67
2023-07-07T23:48:51.479Z,3.77
2023-07-07T23:51:24.185Z,4.43
2023-07-07T23:53:53.608Z,4.20
2023-07-07T23:56:25.524Z,4.20
2023-07-07T23:58:55.618Z,3.80
